Terminal Aerodrome Forecast
Issued by NWS

Home | Current Version | Previous Version | Text Only | Print | Product List | Glossary On
Versions: 1 2 3 4 5 6 7 8 9 10 11 12 13 14 15 16 17
000
FTUS46 KMFR 272338
TAFOTH
TAF
KOTH 272338Z 2800/2824 23005KT P6SM VCSH SCT020 OVC030
     FM280800 15005KT 3SM -DZ BR OVC015
     FM281800 26007KT P6SM FEW020 OVC030=

USA.gov is the U.S. government's official web portal to all federal, state and local government web resources and services.